createdAt,value
2023-05-08T00:01:12.799Z,57.03
2023-05-08T00:03:40.052Z,56.91
2023-05-08T00:06:07.294Z,56.73
2023-05-08T00:08:34.342Z,56.59
2023-05-08T00:11:01.318Z,56.18
2023-05-08T00:13:28.414Z,56.34
2023-05-08T00:15:55.451Z,56.04
2023-05-08T00:18:22.506Z,56.49
2023-05-08T00:20:49.470Z,56.00
2023-05-08T00:23:16.418Z,55.88
2023-05-08T00:25:43.444Z,55.72
2023-05-08T00:28:10.564Z,56.07
2023-05-08T00:30:38.362Z,56.03
2023-05-08T00:33:05.469Z,55.89
2023-05-08T00:35:32.461Z,55.74
2023-05-08T00:37:59.867Z,56.29
2023-05-08T00:40:27.084Z,56.33
2023-05-08T00:42:54.592Z,56.11
2023-05-08T00:45:21.499Z,56.21
2023-05-08T00:47:49.945Z,56.11
2023-05-08T00:50:17.999Z,56.39
2023-05-08T00:52:45.129Z,56.42
2023-05-08T00:55:12.857Z,56.72
2023-05-08T00:57:40.358Z,56.92
2023-05-08T01:00:08.485Z,57.49
2023-05-08T01:02:36.347Z,57.33
2023-05-08T01:05:04.126Z,57.45
2023-05-08T01:07:31.236Z,57.67
2023-05-08T01:09:58.290Z,57.51
2023-05-08T01:12:40.397Z,57.95
2023-05-08T01:15:16.975Z,58.04
2023-05-08T01:18:11.031Z,58.07
2023-05-08T01:20:57.263Z,58.02
2023-05-08T01:23:48.606Z,58.06
2023-05-08T01:26:37.061Z,58.22
2023-05-08T01:29:25.703Z,58.14
2023-05-08T01:32:23.577Z,58.16
2023-05-08T01:35:10.770Z,57.90
2023-05-08T01:37:45.153Z,58.15
2023-05-08T01:40:28.561Z,58.08
2023-05-08T01:43:11.005Z,57.71
2023-05-08T01:45:45.237Z,57.95
2023-05-08T01:48:21.454Z,57.72
2023-05-08T01:50:55.816Z,57.92
2023-05-08T01:53:56.106Z,57.59
2023-05-08T01:56:25.452Z,57.93
2023-05-08T01:58:55.567Z,57.53
2023-05-08T02:01:26.076Z,57.99
2023-05-08T02:03:57.575Z,57.85
2023-05-08T02:06:27.011Z,58.08
2023-05-08T02:08:56.301Z,58.21
2023-05-08T02:11:24.914Z,58.19
2023-05-08T02:13:53.019Z,58.15
2023-05-08T02:16:22.210Z,58.37
2023-05-08T02:18:53.207Z,58.26
2023-05-08T02:21:22.257Z,58.26
2023-05-08T02:23:50.710Z,58.50
2023-05-08T02:26:19.027Z,58.01
2023-05-08T02:28:46.822Z,58.41
2023-05-08T02:31:14.455Z,58.49
2023-05-08T02:33:44.181Z,58.45
2023-05-08T02:36:13.917Z,58.61
2023-05-08T02:38:44.204Z,58.41
2023-05-08T02:41:12.475Z,58.45
2023-05-08T02:43:40.259Z,58.74
2023-05-08T02:46:16.292Z,58.39
2023-05-08T02:49:03.578Z,58.74
2023-05-08T02:51:39.784Z,58.86
2023-05-08T02:54:14.697Z,58.85
2023-05-08T02:56:50.416Z,59.11
2023-05-08T02:59:22.339Z,59.23
2023-05-08T03:02:04.461Z,58.62
2023-05-08T03:04:36.731Z,58.88
2023-05-08T03:07:05.536Z,58.63
2023-05-08T03:09:40.568Z,58.44
2023-05-08T03:12:17.347Z,58.87
2023-05-08T03:15:00.206Z,58.51
2023-05-08T03:17:31.929Z,58.82
2023-05-08T03:20:06.135Z,58.88
2023-05-08T03:22:36.102Z,59.07
2023-05-08T03:25:05.633Z,58.79
2023-05-08T03:27:36.048Z,58.80
2023-05-08T03:30:04.982Z,58.81
2023-05-08T03:32:35.651Z,58.63
2023-05-08T03:35:05.591Z,59.15
2023-05-08T03:37:32.736Z,59.20
2023-05-08T03:40:00.378Z,58.76
2023-05-08T03:42:28.576Z,58.94
2023-05-08T03:44:56.406Z,59.08
2023-05-08T03:47:26.370Z,59.29
2023-05-08T03:49:54.351Z,59.16
2023-05-08T03:52:21.360Z,59.30
2023-05-08T03:54:48.720Z,58.99
2023-05-08T03:57:15.880Z,59.34
2023-05-08T03:59:52.343Z,59.30
2023-05-08T04:02:47.386Z,59.38
2023-05-08T04:05:34.588Z,59.55
2023-05-08T04:08:16.537Z,59.31
2023-05-08T04:10:51.380Z,59.45
2023-05-08T04:13:31.349Z,59.25
2023-05-08T04:16:07.682Z,59.33
2023-05-08T04:18:38.868Z,59.51
2023-05-08T04:21:11.579Z,59.59
2023-05-08T04:23:42.176Z,59.49
2023-05-08T04:26:13.179Z,59.29
2023-05-08T04:28:42.752Z,59.33
2023-05-08T04:31:10.655Z,59.39
2023-05-08T04:33:38.744Z,59.19
2023-05-08T04:36:07.018Z,59.42
2023-05-08T04:38:37.868Z,59.49
2023-05-08T04:41:06.179Z,59.33
2023-05-08T04:43:33.562Z,59.52
2023-05-08T04:46:00.718Z,59.52
2023-05-08T04:48:28.216Z,59.56
2023-05-08T04:50:55.180Z,59.59
2023-05-08T04:53:22.372Z,59.26
2023-05-08T04:55:49.445Z,59.25
2023-05-08T04:58:16.356Z,59.00
2023-05-08T05:00:43.290Z,59.02
2023-05-08T05:03:10.804Z,59.36
2023-05-08T05:05:39.023Z,59.21
2023-05-08T05:08:07.066Z,59.49
2023-05-08T05:10:34.114Z,59.23
2023-05-08T05:13:01.105Z,58.99
2023-05-08T05:15:28.310Z,59.30
2023-05-08T05:17:55.583Z,58.95
2023-05-08T05:20:22.599Z,58.98
2023-05-08T05:22:49.631Z,58.82
2023-05-08T05:25:16.938Z,58.99
2023-05-08T05:27:45.049Z,58.89
2023-05-08T05:30:12.661Z,58.76
2023-05-08T05:32:40.010Z,58.62
2023-05-08T05:35:09.262Z,59.00
2023-05-08T05:37:36.484Z,59.04
2023-05-08T05:40:03.925Z,58.90
2023-05-08T05:42:32.932Z,58.80
2023-05-08T05:45:02.039Z,58.91
2023-05-08T05:47:30.495Z,58.54
2023-05-08T05:49:57.973Z,58.71
2023-05-08T05:52:25.754Z,58.62
2023-05-08T05:54:53.290Z,58.62
2023-05-08T05:57:20.717Z,58.70
2023-05-08T05:59:47.691Z,58.45
2023-05-08T06:02:18.924Z,58.49
2023-05-08T06:04:46.858Z,58.58
2023-05-08T06:07:14.866Z,58.24
2023-05-08T06:09:42.226Z,58.33
2023-05-08T06:12:10.496Z,58.26
2023-05-08T06:14:37.638Z,58.41
2023-05-08T06:17:05.327Z,58.21
2023-05-08T06:19:32.455Z,58.10
2023-05-08T06:21:59.381Z,57.86
2023-05-08T06:24:26.374Z,57.60
2023-05-08T06:26:53.403Z,57.33
2023-05-08T06:29:20.445Z,57.39
2023-05-08T06:31:47.400Z,57.27
2023-05-08T06:34:14.425Z,57.31
2023-05-08T06:36:41.602Z,57.03
2023-05-08T06:39:08.608Z,56.88
2023-05-08T06:41:35.554Z,56.47
2023-05-08T06:44:02.475Z,55.73
2023-05-08T06:46:30.132Z,54.89
2023-05-08T06:48:57.223Z,54.98
2023-05-08T06:51:24.185Z,54.40
2023-05-08T06:53:51.134Z,54.10
2023-05-08T06:56:18.061Z,53.99
2023-05-08T06:58:50.783Z,53.95
2023-05-08T07:01:28.078Z,53.36
2023-05-08T07:03:55.037Z,53.67
2023-05-08T07:06:22.249Z,52.54
2023-05-08T07:08:49.754Z,50.45
2023-05-08T07:11:16.790Z,48.13
2023-05-08T07:13:43.768Z,45.91
2023-05-08T07:16:11.427Z,44.62
2023-05-08T07:18:38.579Z,41.91
2023-05-08T07:21:05.775Z,41.48
2023-05-08T07:23:32.845Z,39.02
2023-05-08T07:25:59.951Z,37.86
2023-05-08T07:28:26.854Z,36.51
2023-05-08T07:30:53.839Z,35.13
2023-05-08T07:33:20.699Z,34.07
2023-05-08T07:35:47.730Z,33.42
2023-05-08T07:38:14.658Z,32.64
2023-05-08T07:40:41.740Z,31.84
2023-05-08T07:43:08.863Z,31.08
2023-05-08T07:45:36.123Z,30.85
2023-05-08T07:48:03.184Z,30.10
2023-05-08T07:50:30.249Z,30.12
2023-05-08T07:52:57.325Z,29.30
2023-05-08T07:55:24.312Z,29.08
2023-05-08T07:57:51.194Z,28.78
2023-05-08T08:00:18.377Z,28.37
2023-05-08T08:02:46.035Z,27.88
2023-05-08T08:05:13.510Z,27.11
2023-05-08T08:07:40.651Z,27.66
2023-05-08T08:10:08.494Z,27.55
2023-05-08T08:12:35.421Z,26.14
2023-05-08T08:15:02.403Z,25.93
2023-05-08T08:17:29.463Z,26.58
2023-05-08T08:19:57.433Z,25.86
2023-05-08T08:22:26.259Z,26.34
2023-05-08T08:24:56.041Z,26.98
2023-05-08T08:27:23.597Z,27.91
2023-05-08T08:29:52.517Z,28.14
2023-05-08T08:32:25.731Z,28.92
2023-05-08T08:34:52.776Z,29.00
2023-05-08T08:37:19.722Z,29.70
2023-05-08T08:39:48.550Z,33.67
2023-05-08T08:42:15.788Z,37.11
2023-05-08T08:44:43.243Z,39.64
2023-05-08T08:47:16.960Z,40.98
2023-05-08T08:49:49.014Z,42.17
2023-05-08T08:52:36.544Z,44.06
2023-05-08T08:55:12.457Z,44.57
2023-05-08T08:57:51.988Z,46.25
2023-05-08T09:00:21.135Z,47.06
2023-05-08T09:02:51.634Z,48.16
2023-05-08T09:05:19.178Z,48.32
2023-05-08T09:07:46.581Z,48.13
2023-05-08T09:10:17.255Z,48.70
2023-05-08T09:12:45.314Z,49.39
2023-05-08T09:15:12.804Z,49.69
2023-05-08T09:17:40.670Z,50.10
2023-05-08T09:20:09.340Z,50.49
2023-05-08T09:22:37.544Z,50.44
2023-05-08T09:25:05.024Z,50.18
2023-05-08T09:27:33.104Z,50.57
2023-05-08T09:30:03.066Z,51.09
2023-05-08T09:32:31.707Z,51.75
2023-05-08T09:34:59.595Z,51.64
2023-05-08T09:37:27.544Z,51.47
2023-05-08T09:39:55.411Z,51.24
2023-05-08T09:42:37.715Z,51.08
2023-05-08T09:45:05.226Z,51.17
2023-05-08T09:47:34.852Z,50.55
2023-05-08T09:50:05.255Z,50.34
2023-05-08T09:52:33.790Z,50.04
2023-05-08T09:55:09.918Z,49.97
2023-05-08T09:57:39.752Z,50.65
2023-05-08T10:00:10.515Z,50.56
2023-05-08T10:02:54.576Z,52.01
2023-05-08T10:05:33.066Z,51.67
2023-05-08T10:08:20.896Z,52.02
2023-05-08T10:10:48.629Z,52.58
2023-05-08T10:13:15.760Z,53.54
2023-05-08T10:15:44.087Z,53.22
2023-05-08T10:18:12.384Z,53.18
2023-05-08T10:20:41.315Z,55.19
2023-05-08T10:23:13.449Z,56.14
2023-05-08T10:25:45.897Z,56.61
2023-05-08T10:28:43.494Z,57.28
2023-05-08T10:31:17.622Z,57.89
2023-05-08T10:33:46.881Z,57.72
2023-05-08T10:36:15.165Z,57.05
2023-05-08T10:38:43.462Z,56.70
2023-05-08T10:41:13.985Z,56.80
2023-05-08T10:43:43.795Z,55.82
2023-05-08T10:46:29.525Z,53.92
2023-05-08T10:49:15.379Z,54.75
2023-05-08T10:51:49.881Z,54.41
2023-05-08T10:54:27.014Z,53.66
2023-05-08T10:57:08.578Z,53.51
2023-05-08T10:59:39.396Z,53.57
2023-05-08T11:02:08.259Z,53.60
2023-05-08T11:04:35.683Z,52.81
2023-05-08T11:07:04.509Z,52.83
2023-05-08T11:09:47.354Z,52.47
2023-05-08T11:12:28.063Z,52.70
2023-05-08T11:15:06.890Z,50.97
2023-05-08T11:17:34.671Z,51.04
2023-05-08T11:20:04.293Z,50.87
2023-05-08T11:22:33.407Z,50.83
2023-05-08T11:25:09.361Z,49.96
2023-05-08T11:27:51.743Z,49.59
2023-05-08T11:30:23.250Z,50.20
2023-05-08T11:33:06.383Z,50.02
2023-05-08T11:35:46.045Z,49.94
2023-05-08T11:38:26.789Z,50.91
2023-05-08T11:41:25.778Z,49.49
2023-05-08T11:44:08.229Z,50.94
2023-05-08T11:46:39.414Z,50.90
2023-05-08T11:49:12.100Z,51.46
2023-05-08T11:51:39.450Z,50.92
2023-05-08T11:54:06.808Z,50.95
2023-05-08T11:56:33.978Z,50.97
2023-05-08T11:59:09.611Z,50.60
2023-05-08T12:01:53.510Z,52.27
2023-05-08T12:04:30.858Z,53.57
2023-05-08T12:06:59.792Z,51.54
2023-05-08T12:09:27.244Z,52.73
2023-05-08T12:11:58.154Z,55.68
2023-05-08T12:14:25.433Z,54.91
2023-05-08T12:16:54.744Z,54.26
2023-05-08T12:19:24.755Z,54.12
2023-05-08T12:21:51.845Z,53.09
2023-05-08T12:24:23.556Z,51.61
2023-05-08T12:27:03.453Z,51.34
2023-05-08T12:29:30.795Z,51.07
2023-05-08T12:31:58.614Z,52.27
2023-05-08T12:34:28.622Z,52.11
2023-05-08T12:37:03.656Z,51.38
2023-05-08T12:39:35.767Z,51.71
2023-05-08T12:42:06.597Z,51.11
2023-05-08T12:44:33.622Z,51.89
2023-05-08T12:47:05.288Z,52.63
2023-05-08T12:49:33.202Z,52.79
2023-05-08T12:52:09.908Z,52.43
2023-05-08T12:54:39.005Z,52.31
2023-05-08T12:57:21.543Z,51.21
2023-05-08T12:59:49.119Z,50.27
2023-05-08T13:02:24.262Z,50.51
2023-05-08T13:04:58.136Z,50.32
2023-05-08T13:07:33.155Z,48.39
2023-05-08T13:10:04.559Z,48.57
2023-05-08T13:12:32.367Z,48.26
2023-05-08T13:14:59.456Z,48.48
2023-05-08T13:17:27.074Z,48.67
2023-05-08T13:19:54.442Z,49.13
2023-05-08T13:22:23.284Z,46.40
2023-05-08T13:24:53.836Z,47.00
2023-05-08T13:27:21.169Z,48.09
2023-05-08T13:29:48.768Z,45.92
2023-05-08T13:32:16.041Z,46.67
2023-05-08T13:34:49.804Z,47.06
2023-05-08T13:37:20.659Z,46.67
2023-05-08T13:39:47.832Z,46.26
2023-05-08T13:42:14.800Z,46.68
2023-05-08T13:44:42.137Z,46.32
2023-05-08T13:47:10.178Z,45.57
2023-05-08T13:49:37.094Z,44.98
2023-05-08T13:52:08.044Z,43.40
2023-05-08T13:54:35.261Z,44.82
2023-05-08T13:57:03.257Z,45.63
2023-05-08T13:59:31.377Z,46.44
2023-05-08T14:01:58.762Z,45.67
2023-05-08T14:04:25.889Z,46.60
2023-05-08T14:06:53.318Z,46.72
2023-05-08T14:09:20.545Z,47.72
2023-05-08T14:11:47.440Z,48.22
2023-05-08T14:14:14.493Z,48.57
2023-05-08T14:16:42.094Z,47.83
2023-05-08T14:19:10.100Z,47.42
2023-05-08T14:21:37.480Z,47.23
2023-05-08T14:24:04.799Z,45.91
2023-05-08T14:26:31.711Z,46.22
2023-05-08T14:28:58.871Z,46.28
2023-05-08T14:31:26.240Z,46.63
2023-05-08T14:33:53.713Z,47.42
2023-05-08T14:36:20.759Z,47.80
2023-05-08T14:38:48.026Z,48.16
2023-05-08T14:41:14.965Z,48.31
2023-05-08T14:43:43.155Z,50.21
2023-05-08T14:46:10.436Z,50.08
2023-05-08T14:48:37.448Z,50.55
2023-05-08T14:51:05.043Z,50.74
2023-05-08T14:53:32.548Z,50.91
2023-05-08T14:56:02.418Z,50.97
2023-05-08T14:58:29.538Z,51.19
2023-05-08T15:00:56.504Z,51.02
2023-05-08T15:03:24.003Z,50.72
2023-05-08T15:05:51.019Z,50.33
2023-05-08T15:08:18.339Z,50.83
2023-05-08T15:10:45.339Z,50.57
2023-05-08T15:13:12.448Z,51.03
2023-05-08T15:15:39.452Z,50.40
2023-05-08T15:18:09.474Z,50.63
2023-05-08T15:20:39.495Z,51.12
2023-05-08T15:23:06.707Z,51.17
2023-05-08T15:25:33.768Z,50.89
2023-05-08T15:28:01.257Z,50.23
2023-05-08T15:30:28.337Z,50.32
2023-05-08T15:32:55.373Z,50.30
2023-05-08T15:35:22.280Z,52.26
2023-05-08T15:37:49.252Z,53.05
2023-05-08T15:40:16.239Z,53.29
2023-05-08T15:42:43.158Z,54.30
2023-05-08T15:45:10.593Z,54.85
2023-05-08T15:47:37.573Z,54.55
2023-05-08T15:50:04.683Z,53.96
2023-05-08T15:52:31.656Z,53.37
2023-05-08T15:54:58.581Z,53.33
2023-05-08T15:57:27.171Z,53.97
2023-05-08T15:59:54.209Z,55.50
2023-05-08T16:02:21.189Z,55.64
2023-05-08T16:04:48.187Z,55.93
2023-05-08T16:07:15.174Z,56.12
2023-05-08T16:09:42.352Z,56.11
2023-05-08T16:12:09.539Z,56.44
2023-05-08T16:14:36.694Z,56.10
2023-05-08T16:17:04.103Z,56.59
2023-05-08T16:19:31.114Z,55.33
2023-05-08T16:21:58.270Z,55.41
2023-05-08T16:24:25.229Z,55.51
2023-05-08T16:26:52.195Z,53.92
2023-05-08T16:29:19.144Z,53.08
2023-05-08T16:31:46.328Z,52.71
2023-05-08T16:34:13.426Z,53.17
2023-05-08T16:36:40.652Z,53.40
2023-05-08T16:39:08.742Z,53.05
2023-05-08T16:41:35.877Z,52.78
2023-05-08T16:44:02.859Z,52.90
2023-05-08T16:46:30.652Z,53.20
2023-05-08T16:48:57.931Z,53.20
2023-05-08T16:51:25.258Z,53.19
2023-05-08T16:53:52.177Z,50.35
2023-05-08T16:56:19.308Z,49.07
2023-05-08T16:58:46.346Z,49.26
2023-05-08T17:01:14.302Z,49.52
2023-05-08T17:03:43.876Z,49.98
2023-05-08T17:06:16.608Z,49.84
2023-05-08T17:08:46.994Z,50.37
2023-05-08T17:11:15.931Z,50.29
2023-05-08T17:13:47.172Z,50.74
2023-05-08T17:16:14.701Z,50.50
2023-05-08T17:18:41.981Z,50.58
2023-05-08T17:21:08.927Z,50.17
2023-05-08T17:23:36.189Z,50.87
2023-05-08T17:26:03.750Z,51.09
2023-05-08T17:28:31.313Z,51.53
2023-05-08T17:31:01.261Z,52.59
2023-05-08T17:33:28.778Z,54.23
2023-05-08T17:35:58.859Z,54.28
2023-05-08T17:38:25.916Z,54.42
2023-05-08T17:40:52.880Z,55.48
2023-05-08T17:43:20.798Z,55.72
2023-05-08T17:45:48.473Z,56.45
2023-05-08T17:48:17.066Z,56.34
2023-05-08T17:50:46.945Z,56.79
2023-05-08T17:53:13.980Z,57.12
2023-05-08T17:55:42.445Z,57.06
2023-05-08T17:58:09.490Z,57.61
2023-05-08T18:00:37.819Z,58.31
2023-05-08T18:03:05.269Z,58.70
2023-05-08T18:05:32.439Z,58.86
2023-05-08T18:08:00.274Z,58.58
2023-05-08T18:10:34.779Z,58.36
2023-05-08T18:13:01.997Z,58.74
2023-05-08T18:15:29.202Z,58.41
2023-05-08T18:17:57.084Z,58.54
2023-05-08T18:20:26.877Z,58.23
2023-05-08T18:22:53.983Z,57.80
2023-05-08T18:25:20.981Z,58.12
2023-05-08T18:27:50.111Z,58.39
2023-05-08T18:30:17.257Z,59.04
2023-05-08T18:32:44.374Z,59.05
2023-05-08T18:35:14.405Z,59.50
2023-05-08T18:37:41.537Z,60.00
2023-05-08T18:40:09.114Z,59.87
2023-05-08T18:42:38.598Z,59.43
2023-05-08T18:45:09.196Z,60.23
2023-05-08T18:47:36.206Z,60.50
2023-05-08T18:50:03.650Z,61.02
2023-05-08T18:52:30.631Z,61.25
2023-05-08T18:54:57.604Z,61.39
2023-05-08T18:57:27.223Z,61.45
2023-05-08T18:59:54.185Z,61.45
2023-05-08T19:02:21.113Z,61.17
2023-05-08T19:04:48.170Z,61.83
2023-05-08T19:07:15.278Z,62.19
2023-05-08T19:09:42.173Z,62.22
2023-05-08T19:12:09.164Z,62.44
2023-05-08T19:14:36.183Z,62.91
2023-05-08T19:17:03.231Z,62.53
2023-05-08T19:19:30.854Z,62.80
2023-05-08T19:21:57.996Z,63.09
2023-05-08T19:24:29.814Z,63.68
2023-05-08T19:26:57.477Z,63.54
2023-05-08T19:29:24.699Z,63.55
2023-05-08T19:31:52.054Z,63.13
2023-05-08T19:34:19.171Z,63.09
2023-05-08T19:36:46.380Z,63.32
2023-05-08T19:39:13.993Z,63.79
2023-05-08T19:41:40.984Z,64.25
2023-05-08T19:44:07.956Z,64.32
2023-05-08T19:46:35.243Z,64.79
2023-05-08T19:49:02.712Z,64.29
2023-05-08T19:51:32.747Z,63.63
2023-05-08T19:54:02.630Z,63.82
2023-05-08T19:56:29.589Z,64.08
2023-05-08T19:58:56.584Z,64.48
2023-05-08T20:01:23.534Z,64.65
2023-05-08T20:03:51.081Z,64.84
2023-05-08T20:06:18.274Z,65.18
2023-05-08T20:08:45.391Z,65.70
2023-05-08T20:11:12.420Z,65.50
2023-05-08T20:13:39.675Z,65.04
2023-05-08T20:16:07.112Z,64.87
2023-05-08T20:18:35.725Z,64.70
2023-05-08T20:21:02.903Z,64.20
2023-05-08T20:23:30.053Z,64.22
2023-05-08T20:25:57.079Z,64.38
2023-05-08T20:28:26.271Z,64.72
2023-05-08T20:30:53.300Z,64.86
2023-05-08T20:33:20.830Z,64.45
2023-05-08T20:35:47.943Z,64.28
2023-05-08T20:38:16.129Z,64.41
2023-05-08T20:40:43.263Z,64.42
2023-05-08T20:43:10.759Z,64.43
2023-05-08T20:45:38.382Z,63.96
2023-05-08T20:48:06.062Z,64.19
2023-05-08T20:50:33.230Z,63.82
2023-05-08T20:53:00.154Z,63.84
2023-05-08T20:55:27.141Z,63.66
2023-05-08T20:57:54.637Z,63.62
2023-05-08T21:00:21.634Z,63.19
2023-05-08T21:02:48.562Z,63.00
2023-05-08T21:05:16.256Z,62.84
2023-05-08T21:07:43.577Z,62.53
2023-05-08T21:10:10.877Z,62.26
2023-05-08T21:12:38.927Z,61.50
2023-05-08T21:15:06.924Z,61.28
2023-05-08T21:17:33.956Z,61.21
2023-05-08T21:20:00.977Z,61.13
2023-05-08T21:22:27.898Z,60.97
2023-05-08T21:24:54.836Z,60.57
2023-05-08T21:27:21.832Z,60.74
2023-05-08T21:29:48.870Z,60.69
2023-05-08T21:32:15.824Z,60.70
2023-05-08T21:34:42.752Z,60.34
2023-05-08T21:37:11.142Z,59.79
2023-05-08T21:39:38.250Z,59.42
2023-05-08T21:42:05.276Z,59.23
2023-05-08T21:44:32.192Z,59.13
2023-05-08T21:46:59.163Z,59.16
2023-05-08T21:49:26.167Z,58.60
2023-05-08T21:51:53.367Z,58.27
2023-05-08T21:54:23.229Z,58.14
2023-05-08T21:56:50.804Z,57.74
2023-05-08T21:59:17.750Z,57.25
2023-05-08T22:01:44.698Z,56.19
2023-05-08T22:04:11.662Z,56.08
2023-05-08T22:06:38.687Z,55.69
2023-05-08T22:09:05.785Z,55.09
2023-05-08T22:11:33.187Z,55.20
2023-05-08T22:14:00.128Z,54.68
2023-05-08T22:16:27.173Z,55.28
2023-05-08T22:18:54.109Z,54.69
2023-05-08T22:21:21.020Z,55.02
2023-05-08T22:23:48.027Z,54.19
2023-05-08T22:26:14.956Z,54.61
2023-05-08T22:28:41.890Z,54.38
2023-05-08T22:31:08.788Z,54.34
2023-05-08T22:33:35.782Z,54.11
2023-05-08T22:36:02.747Z,53.84
2023-05-08T22:38:29.676Z,53.77
2023-05-08T22:40:57.595Z,53.69
2023-05-08T22:43:28.061Z,53.81
2023-05-08T22:45:55.805Z,53.68
2023-05-08T22:48:24.999Z,53.96
2023-05-08T22:50:52.762Z,53.78
2023-05-08T22:53:19.783Z,53.91
2023-05-08T22:55:46.855Z,54.12
2023-05-08T22:58:13.866Z,54.04
2023-05-08T23:00:41.076Z,53.91
2023-05-08T23:03:08.070Z,53.55
2023-05-08T23:05:37.658Z,53.34
2023-05-08T23:08:04.904Z,53.73
2023-05-08T23:10:31.954Z,53.68
2023-05-08T23:12:59.179Z,53.94
2023-05-08T23:15:26.207Z,53.73
2023-05-08T23:17:53.216Z,54.34
2023-05-08T23:20:20.485Z,54.12
2023-05-08T23:22:47.372Z,54.00
2023-05-08T23:25:14.669Z,54.05
2023-05-08T23:27:44.853Z,54.02
2023-05-08T23:30:19.272Z,54.07
2023-05-08T23:32:46.545Z,53.48
2023-05-08T23:35:14.051Z,53.91
2023-05-08T23:37:41.281Z,53.59
2023-05-08T23:40:09.042Z,53.68
2023-05-08T23:42:37.259Z,53.71
2023-05-08T23:45:07.075Z,53.40
2023-05-08T23:47:34.112Z,53.37
2023-05-08T23:50:01.236Z,53.38
2023-05-08T23:52:28.218Z,53.38
2023-05-08T23:54:55.254Z,53.21
2023-05-08T23:57:25.774Z,53.37
2023-05-08T23:59:53.088Z,53.31
